11:47
Airports
History
Links
Donate
Help keep this website running!
PayPal
Bitcoin
This page is community maintained. The information is intended for PC simulator navigation or reference.
Always use approved charts for navigation.
EDTQ
Pattonville Airport
Pattonville Airport (EDTQ)
Remseck, Baden-Wurttemberg, Germany (71686)
(C)
Lat/Lng:48° 51' 51.08" N / 9° 13' 28.93" E
48.86419 / 9.224702
Elevation:920'ft / 280mMSL
ID / ICAO:EDTQ
Runways:1
Longest:(10-28) 675.9m / 2,218ft Asphalt
Controlled:Yes
Beacon:White-Green
Distance To
Airport ID:
Nearby VORs <50NM
Nearby NDBs
Nearby WeatherUpdated 08-20-17 11:20 GMT
Nearby weather at EDDS, Stuttgart located 12.0 nautical miles from EDTQ
Altimeter: 30.24
Visibility: 6.2 statute miles
Wind: 6 knots (300°)
Temp: 17°c 63°f
Humidity: 59.2%

METAR: EDDS 201120Z 30006KT 270V330 9999 -SHRA SCT040TCU BKN058 17/09 Q1024 NOSIG

(Powered by phpweather)
Runway 10 / 28
Dimensions:675.9 x 21m 2218' x 69'ft
Surface:Asphalt
Edge Lights:Low intensity
Runway 10 [A]Runway 28 [B]
Heading:103°TH 283°TH
Lat:
Lng:
48° 51' 53.59"N
9° 13' 12.85"E
48° 51' 48.58"N
9° 13' 45"E
ALS:MALSFMALSF
User Notes and Comments
Google Map
Nearby Airports
(C) Backnang-Heiningen 11.2 NM
EDSH ENE 69°
(C) Stuttgart 12.0 NM
EDDS (WX) S 180°
(U) SCHWABISCH HALL 30.8 NM
EDTY NE 55°
(U) Laichingen 31.7 NM
EDPJ SE 143°
(C) Heubach 32.2 NM
EDTH E 97°
(U) Ingelfingen Buehlhof 37.1 NM
EDGI NNE 31°
(U) Mosbach Lohrbach 37.4 NM
EDGM N 352°
VFR Chart
Flight Planning at SkyVector.com